Terminal Aerodrome Forecast
Issued by NWS

Home | Current Version | Previous Version | Text Only | Print | Product List | Glossary On
Versions: 1 2 3 4 5 6 7 8 9 10 11 12 13 14
000
FTUS45 KTFX 032300
TAFHVR
TAF
KHVR 032338Z 0400/0424 29018G25KT P6SM SKC
     FM040300 29010KT P6SM SKC
     FM041800 22010KT P6SM SKC=

USA.gov is the U.S. government's official web portal to all federal, state and local government web resources and services.